SCBA/BBA METAR and TAF weather

Enter ICAO airport designator
Station Type Date Time Source
SCBA METAR 2022/01/26 20:00 UTC NOAA

SCBA 262000Z 25007KT 180V300 CAVOK 25/02 Q1019


Station Type Date Time Source
SCBA Decoded METAR 2022/01/26 20:00 UTC NOAA

Balmaceda, Chile (SCBA) 45-55S 071-41W 520M
Jan 26, 2022 - 03:00 PM EST / 2022.01.26 2000 UTC
Wind: from the WSW (250 degrees) at 8 MPH (7 KT) (direction variable):0
Visibility: greater than 7 mile(s):0
Temperature: 77 F (25 C)
Dew Point: 35 F (2 C)
Relative Humidity: 22%
Pressure (altimeter): 30.09 in. Hg (1019 hPa)
ob: SCBA 262000Z 25007KT 180V300 CAVOK 25/02 Q1019
cycle: 20

Station Type Date Time Source
SCBA TAF 2022/01/26 18:03 UTC NOAA

TAF SCBA 261656Z 2618/2718 06007KT CAVOK TX26/2620Z TN10/2712Z
BECMG 2701/2703 VRB02KT

Example: see airport list